createdAt,value
2016-05-13T00:00:25.652Z,22.31
2016-05-13T00:01:25.686Z,22.26
2016-05-13T00:02:25.735Z,22.34
2016-05-13T00:03:25.613Z,22.27
2016-05-13T00:04:25.647Z,22.31
2016-05-13T00:05:25.900Z,22.29
2016-05-13T00:06:26.386Z,22.16
2016-05-13T00:07:25.936Z,22.2
2016-05-13T00:08:26.111Z,22.16
2016-05-13T00:09:26.066Z,22.18
2016-05-13T00:10:26.054Z,22.23
2016-05-13T00:11:26.088Z,22.16
2016-05-13T00:12:26.122Z,22.18
2016-05-13T00:13:26.155Z,22.14
2016-05-13T00:14:26.205Z,22.15
2016-05-13T00:15:26.239Z,22.09
2016-05-13T00:16:26.288Z,22.11
2016-05-13T00:17:26.322Z,22.14
2016-05-13T00:18:26.372Z,22.07
2016-05-13T00:19:26.407Z,22.04
2016-05-13T00:20:26.440Z,22.02
2016-05-13T00:21:26.474Z,22.07
2016-05-13T00:22:26.523Z,22.05
2016-05-13T00:23:26.573Z,22.05
2016-05-13T00:24:26.451Z,22
2016-05-13T00:25:26.641Z,22.05
2016-05-13T00:26:26.690Z,22.05
2016-05-13T00:27:26.725Z,22
2016-05-13T00:28:26.758Z,22.04
2016-05-13T00:29:26.808Z,21.94
2016-05-13T00:30:26.842Z,21.99
2016-05-13T00:31:26.875Z,21.92
2016-05-13T00:32:26.770Z,21.96
2016-05-13T00:33:26.959Z,21.93
2016-05-13T00:34:26.853Z,21.94
2016-05-13T00:35:27.043Z,21.9
2016-05-13T00:36:26.921Z,21.97
2016-05-13T00:37:27.126Z,21.89
2016-05-13T00:38:27.160Z,21.94
2016-05-13T00:39:27.210Z,21.9
2016-05-13T00:40:27.244Z,21.94
2016-05-13T00:41:27.122Z,21.93
2016-05-13T00:42:27.327Z,21.89
2016-05-13T00:43:27.361Z,21.93
2016-05-13T00:44:27.395Z,21.92
2016-05-13T00:45:27.273Z,21.93
2016-05-13T00:46:27.479Z,21.92
2016-05-13T00:47:27.904Z,21.89
2016-05-13T00:48:27.546Z,21.96
2016-05-13T00:49:27.596Z,21.93
2016-05-13T00:50:27.629Z,21.85
2016-05-13T00:51:27.679Z,21.94
2016-05-13T00:52:27.714Z,21.82
2016-05-13T00:53:27.762Z,21.78
2016-05-13T00:54:27.798Z,21.85
2016-05-13T00:55:27.675Z,21.85
2016-05-13T00:56:27.865Z,21.85
2016-05-13T00:57:27.915Z,21.86
2016-05-13T00:58:27.948Z,21.86
2016-05-13T00:59:27.983Z,21.83
2016-05-13T01:00:28.031Z,21.83
2016-05-13T01:01:28.077Z,21.85
2016-05-13T01:02:28.170Z,21.83
2016-05-13T01:03:28.248Z,21.8
2016-05-13T01:04:28.324Z,21.82
2016-05-13T01:05:28.418Z,21.77
2016-05-13T01:06:28.487Z,21.73
2016-05-13T01:07:28.537Z,21.83
2016-05-13T01:08:28.588Z,21.73
2016-05-13T01:09:28.653Z,21.71
2016-05-13T01:10:28.702Z,21.73
2016-05-13T01:11:28.765Z,21.71
2016-05-13T01:12:28.804Z,21.73
2016-05-13T01:13:28.843Z,21.77
2016-05-13T01:14:28.899Z,21.73
2016-05-13T01:15:28.938Z,21.73
2016-05-13T01:16:28.992Z,21.76
2016-05-13T01:17:29.027Z,21.7
2016-05-13T01:18:29.064Z,21.76
2016-05-13T01:19:29.115Z,21.77
2016-05-13T01:20:29.151Z,21.73
2016-05-13T01:21:29.186Z,21.73
2016-05-13T01:22:29.237Z,21.78
2016-05-13T01:23:29.271Z,21.7
2016-05-13T01:24:29.306Z,21.67
2016-05-13T01:25:29.342Z,21.67
2016-05-13T01:26:29.391Z,21.7
2016-05-13T01:27:29.441Z,21.66
2016-05-13T01:28:29.476Z,21.67
2016-05-13T01:29:29.368Z,21.74
2016-05-13T01:30:29.560Z,21.7
2016-05-13T01:31:29.594Z,21.7
2016-05-13T01:32:29.705Z,21.67
2016-05-13T01:33:29.662Z,21.78
2016-05-13T01:34:29.710Z,21.68
2016-05-13T01:35:29.745Z,21.7
2016-05-13T01:36:29.780Z,21.71
2016-05-13T01:37:29.829Z,21.61
2016-05-13T01:38:29.879Z,21.74
2016-05-13T01:39:29.896Z,21.7
2016-05-13T01:40:29.946Z,21.67
2016-05-13T01:41:29.980Z,21.66
2016-05-13T01:42:29.873Z,21.76
2016-05-13T01:43:30.064Z,21.64
2016-05-13T01:44:30.113Z,21.67
2016-05-13T01:45:30.162Z,21.61
2016-05-13T01:46:30.181Z,21.76
2016-05-13T01:47:30.075Z,21.76
2016-05-13T01:48:30.265Z,21.73
2016-05-13T01:49:30.299Z,21.61
2016-05-13T01:50:30.333Z,21.7
2016-05-13T01:51:30.382Z,21.7
2016-05-13T01:52:30.259Z,21.73
2016-05-13T01:53:30.466Z,21.74
2016-05-13T01:54:30.499Z,21.62
2016-05-13T01:55:30.392Z,21.7
2016-05-13T01:56:30.567Z,21.73
2016-05-13T01:57:30.617Z,21.61
2016-05-13T01:58:30.651Z,21.66
2016-05-13T01:59:30.685Z,21.66
2016-05-13T02:00:30.735Z,21.74
2016-05-13T02:01:30.783Z,21.71
2016-05-13T02:02:30.818Z,21.77
2016-05-13T02:03:30.852Z,21.71
2016-05-13T02:04:30.902Z,21.73
2016-05-13T02:05:30.935Z,21.71
2016-05-13T02:06:30.969Z,21.68
2016-05-13T02:07:31.003Z,21.7
2016-05-13T02:08:31.053Z,21.76
2016-05-13T02:09:31.087Z,21.66
2016-05-13T02:10:31.137Z,21.73
2016-05-13T02:11:31.171Z,21.68
2016-05-13T02:12:31.204Z,21.62
2016-05-13T02:13:31.081Z,21.62
2016-05-13T02:14:31.287Z,21.68
2016-05-13T02:15:31.322Z,21.68
2016-05-13T02:16:31.371Z,21.61
2016-05-13T02:17:31.562Z,21.64
2016-05-13T02:18:31.439Z,21.62
2016-05-13T02:19:31.488Z,21.67
2016-05-13T02:20:31.522Z,21.58
2016-05-13T02:21:31.556Z,21.59
2016-05-13T02:22:31.606Z,21.58
2016-05-13T02:23:31.640Z,21.59
2016-05-13T02:24:31.689Z,21.55
2016-05-13T02:25:31.723Z,21.61
2016-05-13T02:26:31.758Z,21.61
2016-05-13T02:27:31.807Z,21.62
2016-05-13T02:28:31.841Z,21.58
2016-05-13T02:29:31.875Z,21.53
2016-05-13T02:30:31.909Z,21.59
2016-05-13T02:31:31.802Z,21.58
2016-05-13T02:32:32.024Z,21.53
2016-05-13T02:33:32.041Z,21.62
2016-05-13T02:34:31.919Z,21.56
2016-05-13T02:35:32.109Z,21.55
2016-05-13T02:36:32.159Z,21.56
2016-05-13T02:37:32.194Z,21.56
2016-05-13T02:38:32.227Z,21.58
2016-05-13T02:39:32.261Z,21.56
2016-05-13T02:40:32.310Z,21.58
2016-05-13T02:41:32.345Z,21.56
2016-05-13T02:42:32.394Z,21.46
2016-05-13T02:43:32.428Z,21.51
2016-05-13T02:44:32.478Z,21.49
2016-05-13T02:45:32.512Z,21.48
2016-05-13T02:46:32.545Z,21.51
2016-05-13T02:47:32.782Z,21.51
2016-05-13T02:48:32.629Z,21.55
2016-05-13T02:49:32.663Z,21.59
2016-05-13T02:50:32.698Z,21.49
2016-05-13T02:51:32.747Z,21.48
2016-05-13T02:52:32.780Z,21.51
2016-05-13T02:53:32.830Z,21.46
2016-05-13T02:54:32.864Z,21.55
2016-05-13T02:55:32.897Z,21.52
2016-05-13T02:56:32.932Z,21.52
2016-05-13T02:57:32.981Z,21.49
2016-05-13T02:58:33.016Z,21.46
2016-05-13T02:59:33.064Z,21.46
2016-05-13T03:00:33.099Z,21.46
2016-05-13T03:01:33.133Z,21.43
2016-05-13T03:02:33.276Z,21.45
2016-05-13T03:03:33.060Z,21.45
2016-05-13T03:04:33.250Z,21.49
2016-05-13T03:05:33.300Z,21.43
2016-05-13T03:06:33.333Z,21.43
2016-05-13T03:07:33.368Z,21.52
2016-05-13T03:08:33.418Z,21.52
2016-05-13T03:09:33.296Z,21.46
2016-05-13T03:10:33.485Z,21.45
2016-05-13T03:11:33.519Z,21.46
2016-05-13T03:12:33.568Z,21.53
2016-05-13T03:13:33.618Z,21.48
2016-05-13T03:14:33.652Z,21.46
2016-05-13T03:15:33.686Z,21.48
2016-05-13T03:16:33.720Z,21.49
2016-05-13T03:17:33.957Z,21.53
2016-05-13T03:18:33.803Z,21.51
2016-05-13T03:19:33.837Z,21.53
2016-05-13T03:20:33.886Z,21.52
2016-05-13T03:21:33.920Z,21.51
2016-05-13T03:22:33.956Z,21.58
2016-05-13T03:23:34.004Z,21.52
2016-05-13T03:24:34.039Z,21.55
2016-05-13T03:25:34.088Z,21.55
2016-05-13T03:26:33.966Z,21.56
2016-05-13T03:27:34.156Z,21.51
2016-05-13T03:28:34.189Z,21.59
2016-05-13T03:29:34.239Z,21.56
2016-05-13T03:30:34.273Z,21.62
2016-05-13T03:31:34.307Z,21.61
2016-05-13T03:32:34.200Z,21.56
2016-05-13T03:33:34.391Z,21.62
2016-05-13T03:34:34.425Z,21.56
2016-05-13T03:35:34.475Z,21.59
2016-05-13T03:36:34.508Z,21.56
2016-05-13T03:37:34.542Z,21.64
2016-05-13T03:38:34.591Z,21.59
2016-05-13T03:39:34.626Z,21.56
2016-05-13T03:40:34.659Z,21.58
2016-05-13T03:41:34.710Z,21.61
2016-05-13T03:42:34.743Z,21.62
2016-05-13T03:43:34.777Z,21.62
2016-05-13T03:44:34.827Z,21.68
2016-05-13T03:45:34.704Z,21.67
2016-05-13T03:46:34.895Z,21.68
2016-05-13T03:47:34.788Z,21.64
2016-05-13T03:48:34.978Z,21.68
2016-05-13T03:49:35.012Z,21.66
2016-05-13T03:50:35.062Z,21.74
2016-05-13T03:51:35.095Z,21.77
2016-05-13T03:52:35.145Z,21.67
2016-05-13T03:53:35.179Z,21.73
2016-05-13T03:54:35.213Z,21.59
2016-05-13T03:55:35.262Z,21.71
2016-05-13T03:56:35.140Z,21.7
2016-05-13T03:57:35.330Z,21.66
2016-05-13T03:58:35.380Z,21.64
2016-05-13T03:59:35.445Z,21.73
2016-05-13T04:00:35.447Z,21.68
2016-05-13T04:01:35.498Z,21.68
2016-05-13T04:02:35.578Z,21.7
2016-05-13T04:03:35.566Z,21.66
2016-05-13T04:04:35.614Z,21.7
2016-05-13T04:05:35.649Z,21.66
2016-05-13T04:06:35.682Z,21.61
2016-05-13T04:07:35.733Z,21.62
2016-05-13T04:08:35.766Z,21.73
2016-05-13T04:09:35.800Z,21.73
2016-05-13T04:10:35.849Z,21.59
2016-05-13T04:11:35.883Z,21.7
2016-05-13T04:12:35.933Z,21.73
2016-05-13T04:13:35.811Z,21.7
2016-05-13T04:14:36.001Z,21.7
2016-05-13T04:15:36.051Z,21.7
2016-05-13T04:16:36.084Z,21.61
2016-05-13T04:17:36.134Z,21.59
2016-05-13T04:18:36.152Z,21.71
2016-05-13T04:19:36.202Z,21.7
2016-05-13T04:20:36.096Z,21.68
2016-05-13T04:21:36.285Z,21.73
2016-05-13T04:22:36.320Z,21.64
2016-05-13T04:23:36.353Z,21.7
2016-05-13T04:24:36.247Z,21.67
2016-05-13T04:25:36.436Z,21.73
2016-05-13T04:26:36.315Z,21.73
2016-05-13T04:27:36.520Z,21.66
2016-05-13T04:28:36.554Z,21.71
2016-05-13T04:29:36.432Z,21.73
2016-05-13T04:30:36.638Z,21.66
2016-05-13T04:31:36.672Z,21.7
2016-05-13T04:32:36.705Z,21.71
2016-05-13T04:33:36.755Z,21.78
2016-05-13T04:34:36.789Z,21.76
2016-05-13T04:35:36.823Z,21.77
2016-05-13T04:36:36.716Z,21.73
2016-05-13T04:37:36.907Z,21.71
2016-05-13T04:38:36.941Z,21.73
2016-05-13T04:39:36.991Z,21.71
2016-05-13T04:40:37.024Z,21.73
2016-05-13T04:41:36.918Z,21.78
2016-05-13T04:42:37.107Z,21.76
2016-05-13T04:43:37.141Z,21.73
2016-05-13T04:44:37.190Z,21.85
2016-05-13T04:45:37.225Z,21.89
2016-05-13T04:46:37.275Z,21.9
2016-05-13T04:47:37.309Z,21.93
2016-05-13T04:48:37.342Z,21.89
2016-05-13T04:49:37.376Z,21.83
2016-05-13T04:50:37.409Z,21.8
2016-05-13T04:51:37.459Z,21.86
2016-05-13T04:52:37.510Z,21.93
2016-05-13T04:53:37.543Z,21.89
2016-05-13T04:54:37.577Z,21.9
2016-05-13T04:55:37.470Z,21.94
2016-05-13T04:56:37.661Z,21.97
2016-05-13T04:57:37.695Z,21.86
2016-05-13T04:58:37.745Z,21.85
2016-05-13T04:59:37.778Z,21.89
2016-05-13T05:00:37.812Z,21.92
2016-05-13T05:01:37.861Z,21.86
2016-05-13T05:02:38.036Z,21.9
2016-05-13T05:03:37.930Z,21.82
2016-05-13T05:04:37.980Z,21.94
2016-05-13T05:05:38.014Z,21.83
2016-05-13T05:06:38.047Z,21.92
2016-05-13T05:07:38.097Z,21.89
2016-05-13T05:08:38.130Z,21.94
2016-05-13T05:09:38.180Z,21.9
2016-05-13T05:10:38.213Z,21.9
2016-05-13T05:11:38.249Z,21.92
2016-05-13T05:12:38.282Z,21.82
2016-05-13T05:13:38.332Z,21.93
2016-05-13T05:14:38.366Z,21.86
2016-05-13T05:15:38.259Z,21.8
2016-05-13T05:16:38.449Z,21.83
2016-05-13T05:17:38.514Z,21.89
2016-05-13T05:18:38.532Z,21.94
2016-05-13T05:19:38.566Z,21.92
2016-05-13T05:20:38.601Z,21.9
2016-05-13T05:21:38.650Z,21.92
2016-05-13T05:22:38.684Z,21.94
2016-05-13T05:23:38.733Z,21.85
2016-05-13T05:24:38.768Z,21.86
2016-05-13T05:25:38.801Z,21.92
2016-05-13T05:26:38.851Z,21.94
2016-05-13T05:27:38.884Z,21.89
2016-05-13T05:28:38.934Z,21.89
2016-05-13T05:29:38.967Z,21.92
2016-05-13T05:30:39.002Z,21.93
2016-05-13T05:31:39.037Z,21.86
2016-05-13T05:32:39.523Z,21.86
2016-05-13T05:33:39.120Z,21.94
2016-05-13T05:34:39.169Z,21.86
2016-05-13T05:35:39.203Z,21.94
2016-05-13T05:36:39.253Z,21.93
2016-05-13T05:37:39.271Z,21.89
2016-05-13T05:38:39.321Z,21.86
2016-05-13T05:39:39.355Z,21.85
2016-05-13T05:40:39.405Z,21.94
2016-05-13T05:41:39.438Z,21.9
2016-05-13T05:42:39.488Z,21.9
2016-05-13T05:43:39.521Z,21.89
2016-05-13T05:44:39.555Z,21.85
2016-05-13T05:45:39.589Z,21.94
2016-05-13T05:46:39.638Z,21.93
2016-05-13T05:47:39.955Z,21.96
2016-05-13T05:48:39.707Z,21.92
2016-05-13T05:49:39.757Z,21.94
2016-05-13T05:50:39.790Z,21.96
2016-05-13T05:51:39.824Z,21.94
2016-05-13T05:52:39.874Z,21.96
2016-05-13T05:53:39.923Z,21.93
2016-05-13T05:54:39.973Z,21.99
2016-05-13T05:55:40.006Z,22.02
2016-05-13T05:56:40.041Z,22.05
2016-05-13T05:57:40.090Z,22.04
2016-05-13T05:58:40.109Z,22.05
2016-05-13T05:59:40.143Z,22.07
2016-05-13T06:00:40.192Z,22.2
2016-05-13T06:01:40.226Z,22.2
2016-05-13T06:02:40.260Z,22.26
2016-05-13T06:03:40.169Z,22.27
2016-05-13T06:04:40.344Z,22.26
2016-05-13T06:05:40.237Z,22.3
2016-05-13T06:06:40.271Z,22.29
2016-05-13T06:07:40.461Z,22.3
2016-05-13T06:08:40.511Z,22.3
2016-05-13T06:09:40.545Z,22.38
2016-05-13T06:10:40.578Z,22.31
2016-05-13T06:11:40.627Z,22.29
2016-05-13T06:12:40.662Z,22.29
2016-05-13T06:13:40.711Z,22.33
2016-05-13T06:14:40.746Z,22.44
2016-05-13T06:15:40.779Z,22.39
2016-05-13T06:16:40.829Z,22.45
2016-05-13T06:17:41.066Z,22.54
2016-05-13T06:18:40.913Z,22.48
2016-05-13T06:19:40.947Z,22.48
2016-05-13T06:20:40.980Z,22.45
2016-05-13T06:21:41.015Z,22.44
2016-05-13T06:22:41.065Z,22.48
2016-05-13T06:23:41.098Z,22.49
2016-05-13T06:24:41.148Z,22.52
2016-05-13T06:25:41.025Z,22.49
2016-05-13T06:26:41.215Z,22.51
2016-05-13T06:27:41.265Z,22.54
2016-05-13T06:28:41.299Z,22.51
2016-05-13T06:29:41.333Z,22.51
2016-05-13T06:30:41.382Z,22.54
2016-05-13T06:31:41.416Z,22.55
2016-05-13T06:32:41.638Z,22.55
2016-05-13T06:33:41.500Z,22.45
2016-05-13T06:34:41.533Z,22.49
2016-05-13T06:35:41.583Z,22.48
2016-05-13T06:36:41.617Z,22.42
2016-05-13T06:37:41.650Z,22.44
2016-05-13T06:38:41.701Z,22.44
2016-05-13T06:39:41.578Z,22.54
2016-05-13T06:40:41.783Z,22.39
2016-05-13T06:41:41.661Z,22.49
2016-05-13T06:42:41.853Z,22.49
2016-05-13T06:43:41.901Z,22.54
2016-05-13T06:44:41.794Z,22.54
2016-05-13T06:45:41.985Z,22.44
2016-05-13T06:46:42.019Z,22.48
2016-05-13T06:47:42.303Z,22.45
2016-05-13T06:48:42.102Z,22.45
2016-05-13T06:49:42.137Z,22.42
2016-05-13T06:50:42.170Z,22.51
2016-05-13T06:51:42.220Z,22.45
2016-05-13T06:52:42.254Z,22.44
2016-05-13T06:53:42.162Z,22.46
2016-05-13T06:54:42.337Z,22.41
2016-05-13T06:55:42.371Z,22.45
2016-05-13T06:56:42.421Z,22.45
2016-05-13T06:57:42.455Z,22.44
2016-05-13T06:58:42.489Z,22.57
2016-05-13T06:59:42.538Z,22.48
2016-05-13T07:00:42.573Z,22.51
2016-05-13T07:01:42.607Z,22.41
2016-05-13T07:02:42.750Z,22.48
2016-05-13T07:03:42.690Z,22.51
2016-05-13T07:04:42.739Z,22.45
2016-05-13T07:05:42.773Z,22.46
2016-05-13T07:06:42.823Z,22.42
2016-05-13T07:07:42.856Z,22.55
2016-05-13T07:08:42.734Z,22.48
2016-05-13T07:09:42.940Z,22.51
2016-05-13T07:10:42.975Z,22.45
2016-05-13T07:11:42.852Z,22.49
2016-05-13T07:12:43.057Z,22.46
2016-05-13T07:13:43.092Z,22.52
2016-05-13T07:14:43.125Z,22.44
2016-05-13T07:15:43.175Z,22.41
2016-05-13T07:16:43.210Z,22.33
2016-05-13T07:17:43.258Z,22.12
2016-05-13T07:18:43.292Z,21.86
2016-05-13T07:19:43.327Z,21.61
2016-05-13T07:20:43.376Z,21.51
2016-05-13T07:21:43.410Z,21.36
2016-05-13T07:22:43.460Z,21.13
2016-05-13T07:23:43.635Z,20.96
2016-05-13T07:24:43.527Z,20.85
2016-05-13T07:25:43.576Z,20.71
2016-05-13T07:26:43.612Z,20.58
2016-05-13T07:27:43.660Z,20.6
2016-05-13T07:28:43.538Z,20.49
2016-05-13T07:29:43.729Z,20.51
2016-05-13T07:30:43.762Z,20.42
2016-05-13T07:31:43.812Z,20.37
2016-05-13T07:32:43.706Z,20.35
2016-05-13T07:33:43.880Z,20.37
2016-05-13T07:34:43.945Z,20.38
2016-05-13T07:35:43.963Z,20.3
2016-05-13T07:36:43.997Z,20.38
2016-05-13T07:37:44.047Z,20.35
2016-05-13T07:38:44.081Z,20.29
2016-05-13T07:39:44.114Z,20.29
2016-05-13T07:40:44.008Z,20.4
2016-05-13T07:41:44.198Z,20.4
2016-05-13T07:42:44.233Z,20.35
2016-05-13T07:43:44.283Z,20.38
2016-05-13T07:44:44.160Z,20.37
2016-05-13T07:45:44.349Z,20.32
2016-05-13T07:46:44.383Z,20.3
2016-05-13T07:47:44.933Z,20.3
2016-05-13T07:48:44.467Z,20.38
2016-05-13T07:49:44.517Z,20.4
2016-05-13T07:50:44.551Z,20.44
2016-05-13T07:51:44.585Z,20.42
2016-05-13T07:52:44.635Z,20.44
2016-05-13T07:53:44.668Z,20.46
2016-05-13T07:54:44.702Z,20.44
2016-05-13T07:55:44.751Z,20.41
2016-05-13T07:56:44.770Z,20.49
2016-05-13T07:57:44.835Z,20.38
2016-05-13T07:58:44.869Z,20.51
2016-05-13T07:59:44.903Z,20.46
2016-05-13T08:00:46.249Z,20.51
2016-05-13T08:01:44.971Z,20.54
2016-05-13T08:02:44.879Z,20.46
2016-05-13T08:03:45.054Z,20.46
2016-05-13T08:04:45.088Z,20.42
2016-05-13T08:05:45.217Z,20.42
2016-05-13T08:06:45.172Z,20.49
2016-05-13T08:07:45.222Z,20.53
2016-05-13T08:08:45.240Z,20.51
2016-05-13T08:09:45.290Z,20.54
2016-05-13T08:10:45.167Z,20.48
2016-05-13T08:11:45.372Z,20.53
2016-05-13T08:12:45.406Z,20.53
2016-05-13T08:13:45.425Z,20.53
2016-05-13T08:14:45.475Z,20.51
2016-05-13T08:15:45.509Z,20.54
2016-05-13T08:16:45.558Z,20.57
2016-05-13T08:17:45.842Z,20.67
2016-05-13T08:18:45.627Z,20.6
2016-05-13T08:19:45.675Z,20.57
2016-05-13T08:20:45.710Z,20.56
2016-05-13T08:21:45.743Z,20.61
2016-05-13T08:22:45.794Z,20.63
2016-05-13T08:23:45.671Z,20.57
2016-05-13T08:24:45.860Z,20.54
2016-05-13T08:25:45.911Z,20.57
2016-05-13T08:26:45.788Z,20.71
2016-05-13T08:27:45.979Z,20.61
2016-05-13T08:28:46.012Z,20.58
2016-05-13T08:29:45.906Z,20.58
2016-05-13T08:30:46.096Z,20.57
2016-05-13T08:31:46.129Z,20.67
2016-05-13T08:32:46.054Z,20.64
2016-05-13T08:33:46.229Z,20.56
2016-05-13T08:34:46.262Z,20.49
2016-05-13T08:35:46.281Z,20.67
2016-05-13T08:36:46.331Z,20.54
2016-05-13T08:37:46.365Z,20.61
2016-05-13T08:38:46.399Z,20.6
2016-05-13T08:39:46.433Z,20.58
2016-05-13T08:40:46.482Z,20.63
2016-05-13T08:41:46.516Z,20.57
2016-05-13T08:42:46.566Z,20.74
2016-05-13T08:43:46.600Z,20.75
2016-05-13T08:44:46.633Z,20.76
2016-05-13T08:45:46.683Z,20.86
2016-05-13T08:46:46.702Z,20.96
2016-05-13T08:47:46.751Z,21.09
2016-05-13T08:48:46.800Z,21.12
2016-05-13T08:49:46.835Z,21.21
2016-05-13T08:50:46.868Z,21.31
2016-05-13T08:51:46.746Z,21.34
2016-05-13T08:52:46.796Z,21.34
2016-05-13T08:53:46.830Z,21.46
2016-05-13T08:54:47.019Z,21.48
2016-05-13T08:55:47.054Z,21.51
2016-05-13T08:56:47.104Z,21.56
2016-05-13T08:57:46.981Z,21.66
2016-05-13T08:58:47.171Z,21.74
2016-05-13T08:59:47.221Z,21.7
2016-05-13T09:00:47.255Z,21.66
2016-05-13T09:01:47.304Z,21.71
2016-05-13T09:02:47.635Z,21.71
2016-05-13T09:03:47.372Z,21.83
2016-05-13T09:04:47.421Z,21.9
2016-05-13T09:05:47.440Z,21.86
2016-05-13T09:06:47.489Z,21.85
2016-05-13T09:07:47.539Z,22.04
2016-05-13T09:08:47.573Z,21.94
2016-05-13T09:09:47.607Z,22.07
2016-05-13T09:10:47.641Z,22.02
2016-05-13T09:11:47.690Z,22.08
2016-05-13T09:12:47.725Z,22.14
2016-05-13T09:13:47.759Z,22.15
2016-05-13T09:14:47.808Z,22.14
2016-05-13T09:15:47.842Z,22.16
2016-05-13T09:16:47.875Z,22.24
2016-05-13T09:17:48.175Z,22.26
2016-05-13T09:18:47.959Z,22.31
2016-05-13T09:19:47.994Z,22.3
2016-05-13T09:20:48.043Z,22.33
2016-05-13T09:21:48.077Z,22.26
2016-05-13T09:22:48.127Z,22.45
2016-05-13T09:23:48.160Z,22.31
2016-05-13T09:24:48.038Z,22.34
2016-05-13T09:25:48.244Z,22.45
2016-05-13T09:26:48.278Z,22.44
2016-05-13T09:27:48.312Z,22.45
2016-05-13T09:28:48.377Z,22.46
2016-05-13T09:29:48.410Z,22.38
2016-05-13T09:30:48.429Z,22.45
2016-05-13T09:31:48.479Z,22.42
2016-05-13T09:32:48.544Z,22.45
2016-05-13T09:33:48.562Z,22.45
2016-05-13T09:34:48.596Z,22.48
2016-05-13T09:35:48.646Z,22.52
2016-05-13T09:36:48.523Z,22.55
2016-05-13T09:37:48.557Z,22.55
2016-05-13T09:38:48.762Z,22.59
2016-05-13T09:39:48.798Z,22.64
2016-05-13T09:40:48.690Z,22.64
2016-05-13T09:41:48.881Z,22.64
2016-05-13T09:42:49.461Z,22.69
2016-05-13T09:43:50.198Z,22.55
2016-05-13T09:44:48.998Z,22.63
2016-05-13T09:45:49.047Z,22.66
2016-05-13T09:46:49.081Z,22.63
2016-05-13T09:47:49.116Z,22.69
2016-05-13T09:48:49.555Z,22.67
2016-05-13T09:49:49.230Z,22.7
2016-05-13T09:50:49.233Z,22.84
2016-05-13T09:51:49.282Z,22.82
2016-05-13T09:52:49.316Z,22.85
2016-05-13T09:53:49.350Z,22.84
2016-05-13T09:54:49.430Z,22.88
2016-05-13T09:55:49.433Z,22.86
2016-05-13T09:56:49.483Z,22.89
2016-05-13T09:57:49.517Z,22.84
2016-05-13T09:58:49.567Z,22.92
2016-05-13T09:59:49.601Z,22.96
2016-05-13T10:00:49.635Z,22.99
2016-05-13T10:01:49.512Z,22.99
2016-05-13T10:02:49.781Z,22.91
2016-05-13T10:03:49.768Z,22.91
2016-05-13T10:04:49.645Z,22.94
2016-05-13T10:05:49.835Z,22.96
2016-05-13T10:06:49.885Z,23.01
2016-05-13T10:07:49.984Z,23.06
2016-05-13T10:08:50.015Z,23.03
2016-05-13T10:09:50.107Z,23.04
2016-05-13T10:10:50.184Z,22.99
2016-05-13T10:11:50.276Z,23.01
2016-05-13T10:12:50.388Z,23.06
2016-05-13T10:13:50.390Z,23.06
2016-05-13T10:14:50.346Z,23.04
2016-05-13T10:15:50.378Z,23.16
2016-05-13T10:16:50.554Z,23.16
2016-05-13T10:17:51.285Z,23.19
2016-05-13T10:18:50.653Z,23.16
2016-05-13T10:19:50.708Z,23.15
2016-05-13T10:20:50.747Z,23.19
2016-05-13T10:21:50.849Z,23.19
2016-05-13T10:22:50.840Z,23.19
2016-05-13T10:23:52.407Z,23.22
2016-05-13T10:24:53.349Z,23.25
2016-05-13T10:25:51.042Z,23.26
2016-05-13T10:26:54.140Z,23.37
2016-05-13T10:27:54.596Z,23.38
2016-05-13T10:28:53.444Z,23.34
2016-05-13T10:29:54.400Z,23.38
2016-05-13T10:30:54.294Z,23.38
2016-05-13T10:31:55.814Z,23.38
2016-05-13T10:32:53.505Z,23.4
2016-05-13T10:33:54.179Z,23.38
2016-05-13T10:34:53.604Z,23.38
2016-05-13T10:35:53.608Z,23.41
2016-05-13T10:36:53.673Z,23.45
2016-05-13T10:37:53.550Z,23.47
2016-05-13T10:38:53.725Z,23.47
2016-05-13T10:39:53.775Z,23.48
2016-05-13T10:40:53.809Z,23.47
2016-05-13T10:41:54.905Z,23.45
2016-05-13T10:42:56.221Z,23.47
2016-05-13T10:43:55.114Z,23.44
2016-05-13T10:44:54.210Z,23.45
2016-05-13T10:45:54.025Z,23.44
2016-05-13T10:46:53.902Z,23.48
2016-05-13T10:47:54.937Z,23.5
2016-05-13T10:48:56.440Z,23.48
2016-05-13T10:49:54.333Z,23.48
2016-05-13T10:50:54.211Z,23.6
2016-05-13T10:51:54.230Z,23.48
2016-05-13T10:52:55.091Z,23.47
2016-05-13T10:53:55.703Z,23.57
2016-05-13T10:54:54.221Z,23.53
2016-05-13T10:55:54.396Z,23.55
2016-05-13T10:56:54.195Z,23.48
2016-05-13T10:57:54.230Z,23.62
2016-05-13T10:58:53.201Z,23.59
2016-05-13T10:59:53.109Z,23.6
2016-05-13T11:00:52.503Z,23.6
2016-05-13T11:01:52.818Z,23.7
2016-05-13T11:02:52.634Z,23.67
2016-05-13T11:03:52.777Z,23.7
2016-05-13T11:04:52.983Z,23.74
2016-05-13T11:05:53.033Z,23.72
2016-05-13T11:06:52.894Z,23.7
2016-05-13T11:07:53.116Z,23.75
2016-05-13T11:08:53.447Z,23.75
2016-05-13T11:09:53.137Z,23.77
2016-05-13T11:10:53.014Z,23.82
2016-05-13T11:11:53.267Z,23.85
2016-05-13T11:12:53.270Z,23.81
2016-05-13T11:13:53.069Z,23.84
2016-05-13T11:14:53.385Z,23.77
2016-05-13T11:15:53.402Z,23.7
2016-05-13T11:16:53.468Z,23.79
2016-05-13T11:17:53.315Z,23.81
2016-05-13T11:18:53.411Z,23.84
2016-05-13T11:19:58.710Z,23.89
2016-05-13T11:20:53.244Z,23.84
2016-05-13T11:21:53.482Z,23.87
2016-05-13T11:22:53.688Z,23.87
2016-05-13T11:23:53.393Z,23.87
2016-05-13T11:24:53.365Z,23.84
2016-05-13T11:25:54.055Z,23.9
2016-05-13T11:26:56.495Z,23.82
2016-05-13T11:27:53.342Z,23.82
2016-05-13T11:28:53.532Z,23.99
2016-05-13T11:29:53.581Z,24.03
2016-05-13T11:30:53.615Z,24.07
2016-05-13T11:31:53.649Z,24.11
2016-05-13T11:32:53.698Z,24.14
2016-05-13T11:33:53.733Z,24.07
2016-05-13T11:34:53.782Z,24.15
2016-05-13T11:35:53.816Z,24.18
2016-05-13T11:36:53.866Z,24.14
2016-05-13T11:37:53.900Z,24.15
2016-05-13T11:38:53.934Z,24.19
2016-05-13T11:39:53.983Z,24.3
2016-05-13T11:40:54.017Z,24.34
2016-05-13T11:41:54.066Z,24.36
2016-05-13T11:42:54.100Z,24.4
2016-05-13T11:43:54.150Z,24.39
2016-05-13T11:44:54.183Z,24.4
2016-05-13T11:45:55.171Z,24.54
2016-05-13T11:46:55.221Z,24.55
2016-05-13T11:47:55.114Z,24.46
2016-05-13T11:48:55.305Z,24.48
2016-05-13T11:49:55.370Z,24.55
2016-05-13T11:50:55.247Z,24.58
2016-05-13T11:51:55.437Z,24.63
2016-05-13T11:52:55.471Z,24.8
2016-05-13T11:53:55.521Z,24.89
2016-05-13T11:54:55.555Z,24.8
2016-05-13T11:55:55.588Z,24.77
2016-05-13T11:56:55.638Z,24.7
2016-05-13T11:57:55.673Z,24.67
2016-05-13T11:58:55.721Z,24.63
2016-05-13T11:59:55.756Z,24.66
2016-05-13T12:00:55.914Z,24.7
2016-05-13T12:01:55.840Z,24.82
2016-05-13T12:02:55.904Z,24.85
2016-05-13T12:03:55.782Z,24.92
2016-05-13T12:04:55.973Z,25.04
2016-05-13T12:05:56.006Z,25.07
2016-05-13T12:06:56.056Z,25.05
2016-05-13T12:07:55.950Z,25.01
2016-05-13T12:08:56.139Z,25
2016-05-13T12:09:56.173Z,25.02
2016-05-13T12:10:56.051Z,25.08
2016-05-13T12:11:56.256Z,25.22
2016-05-13T12:12:56.306Z,25.34
2016-05-13T12:13:56.340Z,25.49
2016-05-13T12:14:56.218Z,25.56
2016-05-13T12:15:56.267Z,25.59
2016-05-13T12:16:56.458Z,25.75
2016-05-13T12:17:56.507Z,25.85
2016-05-13T12:18:56.400Z,25.85
2016-05-13T12:19:56.669Z,25.88
2016-05-13T12:20:56.469Z,25.94
2016-05-13T12:21:56.674Z,25.97
2016-05-13T12:22:56.708Z,26.04
2016-05-13T12:23:56.757Z,26.01
2016-05-13T12:24:56.792Z,25.99
2016-05-13T12:25:56.841Z,25.89
2016-05-13T12:26:56.876Z,25.91
2016-05-13T12:27:56.613Z,25.88
2016-05-13T12:28:56.974Z,25.75
2016-05-13T12:29:57.040Z,25.96
2016-05-13T12:30:56.887Z,26.34
2016-05-13T12:31:57.092Z,26.67
2016-05-13T12:32:57.142Z,27.11
2016-05-13T12:33:57.254Z,27.62
2016-05-13T12:34:57.053Z,28.05
2016-05-13T12:35:57.243Z,28.43
2016-05-13T12:36:57.293Z,28.7
2016-05-13T12:37:57.358Z,29.03
2016-05-13T12:38:57.674Z,29.26
2016-05-13T12:39:57.411Z,29.51
2016-05-13T12:40:57.459Z,29.61
2016-05-13T12:41:57.495Z,29.79
2016-05-13T12:42:57.403Z,29.92
2016-05-13T12:43:57.578Z,29.67
2016-05-13T12:44:57.628Z,29.65
2016-05-13T12:45:57.661Z,29.88
2016-05-13T12:46:57.555Z,30.16
2016-05-13T12:47:57.603Z,30.31
2016-05-13T12:48:57.638Z,30.47
2016-05-13T12:49:57.531Z,30.66
2016-05-13T12:50:57.877Z,30.89
2016-05-13T12:51:57.927Z,31.01
2016-05-13T12:52:57.961Z,31.25
2016-05-13T12:53:58.010Z,31.38
2016-05-13T12:54:58.060Z,31.55
2016-05-13T12:55:58.093Z,31.65